Terminal Aerodrome Forecast
Issued by NWS

Home | Current Version | Previous Version | Text Only | Print | Product List | Glossary On
Versions: 1 2 3 4 5 6 7 8 9 10 11 12
491
FTUS44 KCRP 251727
TAFLRD
TAF
KLRD 251727Z 2518/2618 15010KT P6SM SKC
     FM252100 12013G20KT P6SM SCT080
     FM260200 12014KT P6SM SKC
     FM260800 14008KT P6SM SCT020 BKN250
     FM261400 13008KT P6SM BKN018=

USA.gov is the U.S. government's official web portal to all federal, state and local government web resources and services.